Time;durP1;ratioP1;P1;durP2;ratioP2;P2;SDS_P1;SDS_P2;PMS_P1;PMS_P2;Temp;Humidity;BMP_temperature;BMP_pressure;BME280_temperature;BME280_humidity;BME280_pressure;Samples;Min_cycle;Max_cycle;Signal;HPM_P1;HPM_P2
2024/04/05 00:00:14;;;;;;;12.82;5.70;;;10.20;99.90;;;;;;2025751;29;20869;-70
2024/04/05 00:01:15;;;;;;;7.73;4.13;;;10.10;99.90;;;;;;2028194;29;20213;-70
2024/04/05 00:02:15;;;;;;;12.10;5.97;;;10.10;99.90;;;;;;2026092;29;20242;-70
2024/04/05 00:03:17;;;;;;;9.20;4.73;;;10.00;99.90;;;;;;2028190;29;20185;-70
2024/04/05 00:04:17;;;;;;;10.52;5.03;;;10.00;99.90;;;;;;2027059;29;20288;-70
2024/04/05 00:05:18;;;;;;;11.93;5.77;;;9.90;99.90;;;;;;2031566;29;21104;-70
2024/04/05 00:06:19;;;;;;;12.93;5.57;;;10.00;99.90;;;;;;2027746;29;20233;-70
2024/04/05 00:07:19;;;;;;;10.20;6.03;;;9.90;99.90;;;;;;2026955;29;20185;-70
2024/04/05 00:08:24;;;;;;;9.73;5.43;;;9.90;99.90;;;;;;2023320;29;21985;-70
2024/04/05 00:09:26;;;;;;;10.10;4.47;;;9.90;99.90;;;;;;2032266;29;20316;-70
2024/04/05 00:10:26;;;;;;;7.63;4.00;;;9.90;99.90;;;;;;2038797;29;20236;-70
2024/04/05 00:11:27;;;;;;;10.80;4.60;;;9.90;99.90;;;;;;2037864;29;20771;-70
2024/04/05 00:12:28;;;;;;;7.13;4.23;;;9.90;99.90;;;;;;2030623;29;20709;-70
2024/04/05 00:13:28;;;;;;;6.47;3.77;;;9.90;99.90;;;;;;2023103;29;20233;-71
2024/04/05 00:14:29;;;;;;;5.57;3.07;;;9.90;99.90;;;;;;2024150;29;20365;-71
2024/04/05 00:15:30;;;;;;;7.90;3.77;;;9.80;99.90;;;;;;2024476;29;20317;-72
2024/04/05 00:16:31;;;;;;;8.20;4.28;;;9.80;99.90;;;;;;2037509;29;20795;-72
2024/04/05 00:17:31;;;;;;;8.23;5.43;;;9.80;99.90;;;;;;2038389;29;20286;-71
2024/04/05 00:18:35;;;;;;;7.50;5.63;;;9.80;99.90;;;;;;2031719;29;20239;-72
2024/04/05 00:19:36;;;;;;;10.38;5.28;;;9.80;99.90;;;;;;2015159;29;20232;-71
2024/04/05 00:20:36;;;;;;;9.40;5.03;;;9.80;99.90;;;;;;2007806;29;20695;-73
2024/04/05 00:21:37;;;;;;;8.17;5.07;;;9.70;99.90;;;;;;2023281;29;20734;-71
2024/04/05 00:22:38;;;;;;;6.07;4.20;;;9.70;99.90;;;;;;2038036;29;20607;-71
2024/04/05 00:23:39;;;;;;;10.45;4.93;;;9.60;99.90;;;;;;2038720;29;20980;-72
2024/04/05 00:24:40;;;;;;;11.07;4.60;;;9.70;99.90;;;;;;2030948;29;20243;-71
2024/04/05 00:25:41;;;;;;;11.47;4.90;;;9.60;99.90;;;;;;2031593;29;20241;-71
2024/04/05 00:26:42;;;;;;;7.00;3.95;;;9.70;99.90;;;;;;2030753;29;20300;-71
2024/04/05 00:27:42;;;;;;;10.60;4.70;;;9.60;99.90;;;;;;2030468;29;20241;-71
2024/04/05 00:28:43;;;;;;;8.27;3.83;;;9.60;99.90;;;;;;2030799;29;20229;-71
2024/04/05 00:29:44;;;;;;;8.97;4.83;;;9.50;99.90;;;;;;2023733;29;20234;-71
2024/04/05 00:30:44;;;;;;;6.97;4.17;;;9.50;99.90;;;;;;2031898;29;20475;-72
2024/04/05 00:31:45;;;;;;;5.37;3.87;;;9.50;99.90;;;;;;2031472;29;20232;-72
2024/04/05 00:32:46;;;;;;;9.63;3.43;;;9.50;99.90;;;;;;2022608;29;20240;-71
2024/04/05 00:33:46;;;;;;;5.13;3.43;;;9.50;99.90;;;;;;2023955;29;20288;-71
2024/04/05 00:34:47;;;;;;;5.93;3.13;;;9.50;99.90;;;;;;2030813;29;20237;-72
2024/04/05 00:35:52;;;;;;;6.00;3.63;;;9.50;99.90;;;;;;2031055;29;20217;-71
2024/04/05 00:36:53;;;;;;;6.43;3.38;;;9.40;99.90;;;;;;2022944;29;20840;-72
2024/04/05 00:37:54;;;;;;;11.37;4.67;;;9.30;99.90;;;;;;2015033;29;20226;-71
2024/04/05 00:38:55;;;;;;;9.13;4.28;;;9.20;99.90;;;;;;2015129;29;20302;-72
2024/04/05 00:39:55;;;;;;;7.13;4.20;;;9.20;99.90;;;;;;2022828;29;20231;-71
2024/04/05 00:40:56;;;;;;;6.40;4.07;;;9.20;99.90;;;;;;2030822;29;20225;-71
2024/04/05 00:41:57;;;;;;;9.67;3.63;;;9.20;99.90;;;;;;2031846;29;20227;-72
2024/04/05 00:43:03;;;;;;;6.17;3.00;;;9.00;99.90;;;;;;2030224;29;20815;-71
2024/04/05 00:44:04;;;;;;;4.10;2.60;;;9.00;99.90;;;;;;2026506;29;20315;-71
2024/04/05 00:45:05;;;;;;;5.25;2.83;;;9.00;99.90;;;;;;2022816;29;20663;-74
2024/04/05 00:46:06;;;;;;;5.67;2.90;;;9.00;99.90;;;;;;2015343;29;20221;-72
2024/04/05 00:47:07;;;;;;;5.40;3.28;;;9.00;99.90;;;;;;2014791;29;20217;-72
2024/04/05 00:48:09;;;;;;;3.90;2.53;;;9.00;99.90;;;;;;2015286;29;20195;-71
2024/04/05 00:49:10;;;;;;;6.57;2.78;;;9.00;99.90;;;;;;2020614;29;20204;-71
2024/04/05 00:50:10;;;;;;;6.90;2.77;;;9.00;99.90;;;;;;2022838;29;20200;-71
2024/04/05 00:51:11;;;;;;;5.57;3.03;;;9.00;99.90;;;;;;2030970;29;20260;-73
2024/04/05 00:52:13;;;;;;;4.43;2.90;;;9.00;99.90;;;;;;2030351;29;20196;-71
2024/04/05 00:53:28;;;;;;;4.55;2.53;;;9.00;99.90;;;;;;2022867;29;20761;-72
2024/04/05 00:54:30;;;;;;;3.65;2.17;;;9.10;99.90;;;;;;2036699;29;20618;-73
2024/04/05 00:55:31;;;;;;;8.57;2.83;;;9.00;99.90;;;;;;2038140;29;20234;-71
2024/04/05 00:56:33;;;;;;;7.80;2.70;;;9.00;99.90;;;;;;2022809;29;20730;-71
2024/04/05 00:57:34;;;;;;;6.32;2.65;;;9.10;99.90;;;;;;2022259;29;20932;-72
2024/04/05 00:58:34;;;;;;;4.63;2.10;;;9.00;99.90;;;;;;2022736;29;20317;-71
2024/04/05 00:59:35;;;;;;;5.37;2.20;;;9.00;99.90;;;;;;2015187;29;20246;-72
2024/04/05 01:00:36;;;;;;;3.80;2.15;;;8.90;99.90;;;;;;2029309;29;20244;-71
2024/04/05 01:01:41;;;;;;;6.33;2.73;;;8.90;99.90;;;;;;2030268;29;20307;-71
2024/04/05 01:02:42;;;;;;;5.88;2.13;;;8.90;99.90;;;;;;2023486;29;20741;-71
2024/04/05 01:03:42;;;;;;;5.33;2.80;;;9.00;99.90;;;;;;2022959;29;20272;-70
2024/04/05 01:04:43;;;;;;;3.67;2.60;;;8.90;99.90;;;;;;2022117;29;20251;-70
2024/04/05 01:05:46;;;;;;;4.53;3.00;;;8.90;99.90;;;;;;2029092;29;20593;-70
2024/04/05 01:06:47;;;;;;;7.95;3.17;;;8.90;99.90;;;;;;2038950;29;20321;-70
2024/04/05 01:07:52;;;;;;;3.27;2.10;;;8.90;99.90;;;;;;2037520;29;20236;-71
2024/04/05 01:08:53;;;;;;;3.85;2.67;;;8.90;99.90;;;;;;2020589;29;20308;-70
2024/04/05 01:09:54;;;;;;;2.50;2.27;;;8.80;99.90;;;;;;2014021;29;20392;-70
2024/04/05 01:10:54;;;;;;;3.53;2.70;;;8.90;99.90;;;;;;2014221;29;20605;-70
2024/04/05 01:11:58;;;;;;;5.00;2.37;;;8.90;99.90;;;;;;2021897;29;20579;-70
2024/04/05 01:13:01;;;;;;;3.20;2.20;;;8.80;99.90;;;;;;2021968;29;20657;-70
2024/04/05 01:14:01;;;;;;;4.07;2.20;;;8.80;99.90;;;;;;2021986;29;21017;-70
2024/04/05 01:15:02;;;;;;;6.37;2.53;;;8.80;99.90;;;;;;2023062;29;20194;-70
2024/04/05 01:16:06;;;;;;;4.85;2.38;;;8.80;99.90;;;;;;2018764;29;20665;-70
2024/04/05 01:17:07;;;;;;;4.88;2.60;;;8.90;99.90;;;;;;2021606;29;20216;-70
2024/04/05 01:18:09;;;;;;;4.07;2.28;;;8.90;99.90;;;;;;2021533;29;20210;-70
2024/04/05 01:19:15;;;;;;;3.83;2.38;;;8.90;99.90;;;;;;2036909;29;20200;-70
2024/04/05 01:20:20;;;;;;;3.78;2.28;;;8.90;99.90;;;;;;2027853;29;20212;-70
2024/04/05 01:21:22;;;;;;;3.97;2.00;;;8.90;99.90;;;;;;2018974;29;20690;-70
2024/04/05 01:22:46;;;;;;;6.03;1.88;;;9.00;99.90;;;;;;2026036;29;20802;-70
2024/04/05 01:23:46;;;;;;;3.75;2.50;;;9.00;99.90;;;;;;2022457;29;20719;-70
2024/04/05 01:24:47;;;;;;;4.13;2.33;;;9.00;99.90;;;;;;2013764;29;20238;-70
2024/04/05 01:25:50;;;;;;;2.47;2.28;;;9.00;99.90;;;;;;2010767;29;20261;-70
2024/04/05 01:26:52;;;;;;;9.05;3.47;;;9.00;99.90;;;;;;2015754;29;20222;-70
2024/04/05 01:27:52;;;;;;;21.20;4.60;;;8.90;99.90;;;;;;2015878;29;20727;-70
2024/04/05 01:28:53;;;;;;;16.83;4.33;;;8.90;99.90;;;;;;2014112;29;20226;-70
2024/04/05 01:29:54;;;;;;;10.40;3.83;;;8.90;99.90;;;;;;2021067;29;20721;-70
2024/04/05 01:30:54;;;;;;;5.57;3.47;;;8.90;99.90;;;;;;2022059;29;20251;-70
2024/04/05 01:31:55;;;;;;;6.20;3.63;;;8.90;99.90;;;;;;2022018;29;20229;-70
2024/04/05 01:33:01;;;;;;;5.43;3.07;;;8.80;99.90;;;;;;2023309;29;20288;-70
2024/04/05 01:34:01;;;;;;;4.38;3.00;;;8.80;99.90;;;;;;2019990;29;20633;-70
2024/04/05 01:35:02;;;;;;;5.50;3.30;;;8.80;99.90;;;;;;2033672;29;20185;-70
2024/04/05 01:36:03;;;;;;;6.73;3.23;;;8.90;99.90;;;;;;2036309;29;20672;-70
2024/04/05 01:37:05;;;;;;;5.75;3.40;;;8.90;99.90;;;;;;2021445;29;20717;-70
2024/04/05 01:38:06;;;;;;;5.13;3.42;;;8.90;99.90;;;;;;2021675;29;20222;-70
2024/04/05 01:39:06;;;;;;;5.70;3.37;;;8.90;99.90;;;;;;2020848;29;20548;-70
2024/04/05 01:40:08;;;;;;;3.43;2.67;;;8.90;99.90;;;;;;2019944;29;20181;-70
2024/04/05 01:41:08;;;;;;;6.53;4.30;;;8.90;99.90;;;;;;2021806;29;20181;-71
2024/04/05 01:42:09;;;;;;;3.67;2.67;;;9.00;99.90;;;;;;2021289;29;20190;-70
2024/04/05 01:43:10;;;;;;;3.97;2.97;;;9.00;99.90;;;;;;2021427;29;20193;-71
2024/04/05 01:44:10;;;;;;;4.40;2.90;;;9.00;99.90;;;;;;2013626;29;20659;-70
2024/04/05 01:45:11;;;;;;;4.00;2.90;;;9.00;99.90;;;;;;2021388;29;20185;-70
2024/04/05 01:46:12;;;;;;;4.73;2.60;;;9.10;99.90;;;;;;2034356;29;20664;-70
2024/04/05 01:47:12;;;;;;;3.60;2.83;;;9.10;99.90;;;;;;2036332;29;20610;-70
2024/04/05 01:48:13;;;;;;;2.30;2.10;;;9.20;99.90;;;;;;2029587;29;20181;-70
2024/04/05 01:49:14;;;;;;;4.50;2.53;;;9.20;99.90;;;;;;2036656;29;20218;-70
2024/04/05 01:50:16;;;;;;;2.67;2.07;;;9.20;99.90;;;;;;2028070;29;20276;-70
2024/04/05 01:51:17;;;;;;;3.85;2.17;;;9.10;99.90;;;;;;2021398;29;20190;-70
2024/04/05 01:52:17;;;;;;;2.47;2.27;;;9.00;99.90;;;;;;2021269;29;20197;-71
2024/04/05 01:53:18;;;;;;;3.40;1.70;;;9.00;99.90;;;;;;2021473;29;20186;-70
2024/04/05 01:54:19;;;;;;;2.93;2.40;;;9.00;99.90;;;;;;2018038;29;20194;-70
2024/04/05 01:55:19;;;;;;;3.73;2.77;;;8.90;99.90;;;;;;2023965;29;20233;-70
2024/04/05 01:56:20;;;;;;;4.23;2.60;;;9.00;99.90;;;;;;2029484;29;20228;-70
2024/04/05 01:57:21;;;;;;;3.23;2.53;;;9.00;99.90;;;;;;2029673;29;20339;-70
2024/04/05 01:58:22;;;;;;;4.22;2.67;;;8.90;99.90;;;;;;2030152;29;20740;-70
2024/04/05 01:59:23;;;;;;;3.00;2.33;;;8.80;99.90;;;;;;2026154;29;20237;-70
2024/04/05 02:00:23;;;;;;;2.77;2.27;;;8.80;99.90;;;;;;2024635;29;20757;-70
2024/04/05 02:01:24;;;;;;;2.97;2.53;;;8.90;99.90;;;;;;2021600;29;20677;-70
2024/04/05 02:02:25;;;;;;;3.57;2.30;;;8.90;99.90;;;;;;2026744;29;20240;-70
2024/04/05 02:03:25;;;;;;;2.73;2.10;;;8.80;99.90;;;;;;2026206;29;20240;-70
2024/04/05 02:04:26;;;;;;;4.93;2.33;;;8.80;99.90;;;;;;2021307;29;20297;-70
2024/04/05 02:05:27;;;;;;;2.40;2.10;;;8.80;99.90;;;;;;2021602;29;20233;-70
2024/04/05 02:06:27;;;;;;;4.70;2.77;;;8.90;99.90;;;;;;2022852;29;20283;-70
2024/04/05 02:07:28;;;;;;;5.00;2.13;;;8.90;99.90;;;;;;2022444;29;20733;-70
2024/04/05 02:08:29;;;;;;;3.57;2.50;;;8.90;99.90;;;;;;2021941;29;20336;-71
2024/04/05 02:09:29;;;;;;;5.33;2.83;;;8.90;99.90;;;;;;2021595;29;20256;-70
2024/04/05 02:10:30;;;;;;;5.57;2.80;;;8.80;99.90;;;;;;2033220;29;20716;-70
2024/04/05 02:11:31;;;;;;;4.37;3.27;;;8.80;99.90;;;;;;2026300;29;20287;-70
2024/04/05 02:12:31;;;;;;;5.10;2.90;;;8.80;99.90;;;;;;2022162;29;20320;-70
2024/04/05 02:13:32;;;;;;;3.93;2.03;;;8.80;99.90;;;;;;2013183;29;20261;-70
2024/04/05 02:14:34;;;;;;;2.97;2.43;;;8.80;99.90;;;;;;2005797;29;20316;-70
2024/04/05 02:15:34;;;;;;;3.20;2.40;;;8.80;99.90;;;;;;2020871;29;20237;-70
2024/04/05 02:16:35;;;;;;;2.47;2.27;;;8.70;99.90;;;;;;2021099;29;20236;-70
2024/04/05 02:17:36;;;;;;;3.77;2.40;;;8.70;99.90;;;;;;2021203;29;20229;-70
2024/04/05 02:18:36;;;;;;;4.07;2.93;;;8.60;99.90;;;;;;2028156;29;20758;-70
2024/04/05 02:19:37;;;;;;;3.40;2.53;;;8.60;99.90;;;;;;2013715;29;20323;-70
2024/04/05 02:20:41;;;;;;;3.45;2.67;;;8.60;99.90;;;;;;2005553;29;20231;-70
2024/04/05 02:21:42;;;;;;;3.85;2.58;;;8.60;99.90;;;;;;2020034;29;20311;-70
2024/04/05 02:22:42;;;;;;;3.37;2.43;;;8.60;99.90;;;;;;2021671;29;20236;-70
2024/04/05 02:23:43;;;;;;;2.47;1.80;;;8.60;99.90;;;;;;2022731;29;20236;-71
2024/04/05 02:24:44;;;;;;;3.77;2.80;;;8.60;99.90;;;;;;2026062;29;20240;-71
2024/04/05 02:25:44;;;;;;;3.27;2.60;;;8.70;99.90;;;;;;2033055;29;20610;-70
2024/04/05 02:26:45;;;;;;;3.40;2.40;;;8.80;99.90;;;;;;2029149;29;20720;-71
2024/04/05 02:27:46;;;;;;;3.67;2.47;;;8.70;99.90;;;;;;2013513;29;20234;-71
2024/04/05 02:28:46;;;;;;;3.60;2.50;;;8.70;99.90;;;;;;2014266;29;20314;-70
2024/04/05 02:29:47;;;;;;;4.13;2.27;;;8.70;99.90;;;;;;2021247;29;20319;-70
2024/04/05 02:30:48;;;;;;;3.27;2.60;;;8.70;99.90;;;;;;2021252;29;20237;-70
2024/04/05 02:31:48;;;;;;;8.80;2.37;;;8.60;99.90;;;;;;2022059;29;20264;-70
2024/04/05 02:32:49;;;;;;;3.97;2.27;;;8.50;99.90;;;;;;2022626;29;20233;-70
2024/04/05 02:33:50;;;;;;;3.33;2.70;;;8.50;99.90;;;;;;2021937;29;20233;-70
2024/04/05 02:34:50;;;;;;;7.43;2.47;;;8.50;99.90;;;;;;2025051;29;20274;-70
2024/04/05 02:36:00;;;;;;;4.00;2.70;;;8.50;99.90;;;;;;2017124;29;20237;-70
2024/04/05 02:37:01;;;;;;;5.22;2.47;;;8.50;99.90;;;;;;2013313;29;20301;-69
2024/04/05 02:38:02;;;;;;;3.20;2.67;;;8.50;99.90;;;;;;2030620;29;20204;-70
2024/04/05 02:39:07;;;;;;;6.17;2.60;;;8.50;99.90;;;;;;2036728;29;20183;-69
2024/04/05 02:40:08;;;;;;;2.72;2.38;;;8.50;99.90;;;;;;2029173;29;20558;-70
2024/04/05 02:41:09;;;;;;;3.72;2.47;;;8.50;99.90;;;;;;2021680;29;20196;-70
2024/04/05 02:42:09;;;;;;;5.80;2.60;;;8.50;99.90;;;;;;2021487;29;21009;-70
2024/04/05 02:43:10;;;;;;;3.87;2.17;;;8.50;99.90;;;;;;2020992;29;20188;-70
2024/04/05 02:44:11;;;;;;;3.57;1.90;;;8.40;99.90;;;;;;2012220;29;20186;-70
2024/04/05 02:45:12;;;;;;;4.07;2.15;;;8.50;99.90;;;;;;2020702;29;20233;-70
2024/04/05 02:46:13;;;;;;;5.33;1.80;;;8.50;99.90;;;;;;2028998;29;20211;-70
2024/04/05 02:47:13;;;;;;;3.57;2.00;;;8.50;99.90;;;;;;2037072;29;20216;-70
2024/04/05 02:48:15;;;;;;;2.90;1.73;;;8.60;99.90;;;;;;2013566;29;20197;-70
2024/04/05 02:49:16;;;;;;;3.60;1.75;;;8.60;99.90;;;;;;2021210;29;20272;-70
2024/04/05 02:50:17;;;;;;;4.20;2.07;;;8.70;99.90;;;;;;2028625;29;20177;-70
2024/04/05 02:51:18;;;;;;;3.87;1.67;;;8.70;99.90;;;;;;2021578;29;20334;-70
2024/04/05 02:52:19;;;;;;;4.53;1.85;;;8.80;99.90;;;;;;2036836;29;20180;-70
2024/04/05 02:53:20;;;;;;;4.23;1.80;;;8.80;99.90;;;;;;2038226;29;20932;-70
2024/04/05 02:54:20;;;;;;;4.33;1.97;;;8.90;99.90;;;;;;2021378;29;20280;-70
2024/04/05 02:55:21;;;;;;;4.23;1.90;;;8.80;99.90;;;;;;2028375;29;20314;-70
2024/04/05 02:56:22;;;;;;;2.17;1.73;;;8.80;99.90;;;;;;2036393;29;20267;-70
2024/04/05 02:57:22;;;;;;;4.27;2.17;;;8.80;99.90;;;;;;2029211;29;20291;-70
2024/04/05 02:58:23;;;;;;;3.67;1.90;;;8.80;99.90;;;;;;2025674;29;20337;-70
2024/04/05 02:59:24;;;;;;;3.50;2.63;;;8.80;99.90;;;;;;2033231;29;20242;-70
2024/04/05 03:00:24;;;;;;;7.00;2.43;;;8.70;99.90;;;;;;2037714;29;20235;-70
2024/04/05 03:01:25;;;;;;;5.70;2.67;;;8.70;99.90;;;;;;2028881;29;20760;-70
2024/04/05 03:02:25;;;;;;;3.60;2.90;;;8.70;99.90;;;;;;2028935;29;20247;-70
2024/04/05 03:03:26;;;;;;;6.93;2.70;;;8.70;99.90;;;;;;2021162;29;20252;-70
2024/04/05 03:04:27;;;;;;;3.27;2.27;;;8.70;99.90;;;;;;2017325;29;20294;-70
2024/04/05 03:05:28;;;;;;;2.83;2.20;;;8.50;99.90;;;;;;2024271;29;20663;-70
2024/04/05 03:06:29;;;;;;;3.33;2.38;;;8.50;99.90;;;;;;2036489;29;20243;-70
2024/04/05 03:07:29;;;;;;;4.43;2.93;;;8.40;99.90;;;;;;2037292;29;20726;-70
2024/04/05 03:08:30;;;;;;;3.87;2.70;;;8.40;99.90;;;;;;2026693;29;20680;-71
2024/04/05 03:09:32;;;;;;;4.00;2.90;;;8.40;99.90;;;;;;2021204;29;20237;-71
2024/04/05 03:10:33;;;;;;;5.53;2.67;;;8.40;99.90;;;;;;2020300;29;20243;-71
2024/04/05 03:11:33;;;;;;;3.60;2.77;;;8.40;99.90;;;;;;2025665;29;20243;-70
2024/04/05 03:12:34;;;;;;;3.27;2.67;;;8.40;99.90;;;;;;2013252;29;20293;-70
2024/04/05 03:13:35;;;;;;;3.27;2.60;;;8.30;99.90;;;;;;2013747;29;20247;-70
2024/04/05 03:14:36;;;;;;;4.78;2.50;;;8.30;99.90;;;;;;2013997;29;20240;-70
2024/04/05 03:15:36;;;;;;;5.83;3.00;;;8.30;99.90;;;;;;2015374;29;20263;-70
2024/04/05 03:16:37;;;;;;;3.43;2.50;;;8.30;99.90;;;;;;2030846;29;20243;-70
2024/04/05 03:17:38;;;;;;;5.03;2.90;;;8.30;99.90;;;;;;2031224;29;20316;-70
2024/04/05 03:18:38;;;;;;;3.10;2.50;;;8.30;99.90;;;;;;2014333;29;20697;-70
2024/04/05 03:19:39;;;;;;;2.77;2.30;;;8.30;99.90;;;;;;2015772;29;20234;-70
2024/04/05 03:20:42;;;;;;;3.60;2.30;;;8.40;99.90;;;;;;2021810;29;20245;-70
2024/04/05 03:21:42;;;;;;;6.35;2.60;;;8.40;99.90;;;;;;2024541;29;20790;-70
2024/04/05 03:22:43;;;;;;;4.77;2.23;;;8.30;99.90;;;;;;2030057;29;20231;-70
2024/04/05 03:23:44;;;;;;;4.53;2.13;;;8.20;99.90;;;;;;2037595;29;20674;-70
2024/04/05 03:24:44;;;;;;;6.87;2.67;;;8.10;99.90;;;;;;2024060;29;20644;-70
2024/04/05 03:25:46;;;;;;;4.37;2.30;;;8.20;99.90;;;;;;2022466;29;20244;-70
2024/04/05 03:26:47;;;;;;;9.55;2.38;;;8.20;99.90;;;;;;2022583;29;20236;-70
2024/04/05 03:27:49;;;;;;;7.40;2.50;;;8.10;99.90;;;;;;2022884;29;20236;-70
2024/04/05 03:28:49;;;;;;;5.13;2.22;;;8.10;99.90;;;;;;2023132;29;20887;-70
2024/04/05 03:29:51;;;;;;;4.53;2.50;;;8.10;99.90;;;;;;2015648;29;20241;-70
2024/04/05 03:30:52;;;;;;;4.40;2.78;;;8.20;99.90;;;;;;2006810;29;20231;-70
2024/04/05 03:31:53;;;;;;;3.60;2.40;;;8.20;99.90;;;;;;2008048;29;20230;-70
2024/04/05 03:32:54;;;;;;;3.88;2.35;;;8.20;99.90;;;;;;2014540;29;20230;-70
2024/04/05 03:33:54;;;;;;;6.97;3.13;;;8.10;99.90;;;;;;2022843;29;20225;-70
2024/04/05 03:34:55;;;;;;;7.87;3.27;;;8.10;99.90;;;;;;2031913;29;20245;-70
2024/04/05 03:35:55;;;;;;;5.83;3.40;;;8.10;99.90;;;;;;2030615;29;20252;-70
2024/04/05 03:36:56;;;;;;;4.73;3.23;;;8.20;99.90;;;;;;2022553;29;20311;-70
2024/04/05 03:37:57;;;;;;;5.00;3.10;;;8.20;99.90;;;;;;2023326;29;20294;-70
2024/04/05 03:39:00;;;;;;;7.63;3.33;;;8.20;99.90;;;;;;2023742;29;20224;-70
2024/04/05 03:40:01;;;;;;;5.07;2.75;;;8.10;99.90;;;;;;2014291;29;20222;-70
2024/04/05 03:41:02;;;;;;;7.27;3.30;;;8.00;99.90;;;;;;2016421;29;20320;-70
2024/04/05 03:42:04;;;;;;;4.30;2.55;;;8.00;99.90;;;;;;2014422;29;20191;-70
2024/04/05 03:43:07;;;;;;;6.10;3.20;;;8.00;99.90;;;;;;2015633;29;20694;-70
2024/04/05 03:44:08;;;;;;;5.07;3.28;;;7.80;99.90;;;;;;2015406;29;20205;-70
2024/04/05 03:45:09;;;;;;;3.67;2.20;;;7.80;99.90;;;;;;2026663;29;20184;-70
2024/04/05 03:46:09;;;;;;;5.20;3.00;;;7.80;99.90;;;;;;2030723;29;20196;-70
2024/04/05 03:47:10;;;;;;;4.47;2.40;;;7.80;99.90;;;;;;2038261;29;20589;-70
2024/04/05 03:48:11;;;;;;;7.00;2.53;;;7.80;99.90;;;;;;2030646;29;20287;-70
2024/04/05 03:49:12;;;;;;;4.07;1.80;;;7.80;99.90;;;;;;2030659;29;20308;-70
2024/04/05 03:50:13;;;;;;;3.50;2.10;;;7.80;99.90;;;;;;2030300;29;20289;-70
2024/04/05 03:51:13;;;;;;;5.83;2.30;;;7.80;99.90;;;;;;2022439;29;20639;-70
2024/04/05 03:52:14;;;;;;;3.67;1.53;;;7.70;99.90;;;;;;2031226;29;20287;-70
2024/04/05 03:53:15;;;;;;;4.83;2.00;;;7.70;99.90;;;;;;2034424;29;20196;-70
2024/04/05 03:54:15;;;;;;;4.13;2.10;;;7.70;99.90;;;;;;2033897;29;20275;-70
2024/04/05 03:55:16;;;;;;;2.60;1.57;;;7.80;99.90;;;;;;2037510;29;20201;-70
2024/04/05 03:56:17;;;;;;;5.67;2.07;;;7.80;99.90;;;;;;2029933;29;20745;-70
2024/04/05 03:57:21;;;;;;;3.93;2.07;;;7.90;99.90;;;;;;2038142;29;20276;-70
2024/04/05 03:58:22;;;;;;;4.75;2.40;;;8.00;99.90;;;;;;2037820;29;20708;-70
2024/04/05 03:59:23;;;;;;;4.63;2.10;;;7.90;99.90;;;;;;2027116;29;20247;-70
2024/04/05 04:00:23;;;;;;;4.87;2.73;;;8.00;99.90;;;;;;2017803;29;20664;-70
2024/04/05 04:01:24;;;;;;;4.30;1.90;;;8.00;99.90;;;;;;2023186;29;20233;-70
2024/04/05 04:02:25;;;;;;;3.23;1.77;;;8.00;99.90;;;;;;2030380;29;20708;-70
2024/04/05 04:03:26;;;;;;;4.17;1.90;;;8.10;99.90;;;;;;2039489;29;20246;-70
2024/04/05 04:04:28;;;;;;;4.10;1.95;;;8.00;99.90;;;;;;2038631;29;20238;-70
2024/04/05 04:05:28;;;;;;;6.15;2.38;;;8.00;99.90;;;;;;2025607;29;20753;-70
2024/04/05 04:06:29;;;;;;;2.73;2.00;;;8.10;99.90;;;;;;2026175;29;20240;-70
2024/04/05 04:07:30;;;;;;;2.83;2.33;;;8.10;99.90;;;;;;2031670;29;20645;-70
2024/04/05 04:08:30;;;;;;;4.20;2.30;;;8.20;99.90;;;;;;2024952;29;20233;-70
2024/04/05 04:09:32;;;;;;;8.83;2.07;;;8.20;99.90;;;;;;2026143;29;20245;-70
2024/04/05 04:10:33;;;;;;;4.32;2.00;;;8.30;99.90;;;;;;2021551;29;20607;-70
2024/04/05 04:11:33;;;;;;;1.67;1.57;;;8.30;99.90;;;;;;2022326;29;20244;-70
2024/04/05 04:12:34;;;;;;;2.17;1.97;;;8.30;99.90;;;;;;2034653;29;20822;-70
2024/04/05 04:13:35;;;;;;;7.63;2.47;;;8.30;99.90;;;;;;2022457;29;20241;-70
2024/04/05 04:14:37;;;;;;;5.83;2.10;;;8.30;99.90;;;;;;2022526;29;20712;-70
2024/04/05 04:15:39;;;;;;;4.53;2.30;;;8.30;99.90;;;;;;2030247;29;20255;-70
2024/04/05 04:16:40;;;;;;;4.87;2.00;;;8.30;99.90;;;;;;2037555;29;20251;-70
2024/04/05 04:17:41;;;;;;;3.20;2.00;;;8.30;99.90;;;;;;2038097;29;20808;-70
2024/04/05 04:18:46;;;;;;;2.33;1.63;;;8.20;99.90;;;;;;2031004;29;20399;-70
2024/04/05 04:19:47;;;;;;;5.53;2.03;;;8.20;99.90;;;;;;2023055;29;20519;-70
2024/04/05 04:20:50;;;;;;;2.30;2.10;;;8.20;99.90;;;;;;2030229;29;20650;-70
2024/04/05 04:21:51;;;;;;;3.13;2.20;;;8.10;99.90;;;;;;2026328;29;20244;-70
2024/04/05 04:22:52;;;;;;;4.32;2.50;;;8.00;99.90;;;;;;2023758;29;20264;-70
2024/04/05 04:23:53;;;;;;;5.93;3.20;;;8.00;99.90;;;;;;2022591;29;20225;-70
2024/04/05 04:24:54;;;;;;;7.22;4.45;;;8.00;99.90;;;;;;2023547;29;20225;-70
2024/04/05 04:25:57;;;;;;;6.40;4.03;;;7.90;99.90;;;;;;2037434;29;20882;-70
2024/04/05 04:26:58;;;;;;;4.97;2.90;;;7.90;99.90;;;;;;2029784;29;20244;-70
2024/04/05 04:27:59;;;;;;;4.93;3.20;;;7.80;99.90;;;;;;2022396;29;20252;-70
2024/04/05 04:29:00;;;;;;;3.97;2.17;;;7.90;99.90;;;;;;2021974;29;20321;-70
2024/04/05 04:30:00;;;;;;;4.27;2.50;;;7.80;99.90;;;;;;2023050;29;20233;-70
2024/04/05 04:31:16;;;;;;;5.30;4.03;;;7.80;99.90;;;;;;2030018;29;21208;-69
2024/04/05 04:32:17;;;;;;;8.55;4.80;;;7.80;99.90;;;;;;2028214;29;20237;-70
2024/04/05 04:33:18;;;;;;;13.33;6.30;;;7.60;99.90;;;;;;2029810;29;20201;-70
2024/04/05 04:34:19;;;;;;;7.53;4.65;;;7.50;99.90;;;;;;2032345;29;20303;-69
2024/04/05 04:35:20;;;;;;;6.93;4.83;;;7.50;99.90;;;;;;2026049;29;20200;-70
2024/04/05 04:36:22;;;;;;;8.63;5.13;;;7.50;99.90;;;;;;2034180;29;20312;-70
2024/04/05 04:37:23;;;;;;;7.65;5.28;;;7.30;99.90;;;;;;2035942;29;20235;-70
2024/04/05 04:38:24;;;;;;;6.18;3.95;;;7.30;99.90;;;;;;2027049;29;20240;-70
2024/04/05 04:39:24;;;;;;;9.00;4.50;;;7.30;99.90;;;;;;2026462;29;20259;-70
2024/04/05 04:40:25;;;;;;;9.73;5.23;;;7.40;99.90;;;;;;2030146;29;20267;-70
2024/04/05 04:41:26;;;;;;;8.03;4.83;;;7.40;99.90;;;;;;2031401;29;20331;-70
2024/04/05 04:42:27;;;;;;;7.82;4.97;;;7.40;99.90;;;;;;2030601;29;20242;-70
2024/04/05 04:43:28;;;;;;;8.82;4.75;;;7.50;99.90;;;;;;2029560;29;20240;-70
2024/04/05 04:44:29;;;;;;;6.50;4.00;;;7.60;99.90;;;;;;2026346;29;20718;-70
2024/04/05 04:45:29;;;;;;;4.97;3.40;;;7.50;99.90;;;;;;2026457;29;20220;-70
2024/04/05 04:46:32;;;;;;;5.93;3.30;;;7.50;99.90;;;;;;2030726;29;20243;-70
2024/04/05 04:47:32;;;;;;;4.07;3.17;;;7.50;99.90;;;;;;2026642;29;20233;-70
2024/04/05 04:48:33;;;;;;;6.10;3.10;;;7.40;99.90;;;;;;2026045;29;20315;-70
2024/04/05 04:49:35;;;;;;;3.77;3.07;;;7.40;99.90;;;;;;2022197;29;20320;-70
2024/04/05 04:50:36;;;;;;;4.60;3.53;;;7.40;99.90;;;;;;2022262;29;20312;-70
2024/04/05 04:51:36;;;;;;;4.73;3.93;;;7.50;99.90;;;;;;2036525;29;20232;-70
2024/04/05 04:52:37;;;;;;;7.00;3.80;;;7.60;99.90;;;;;;2036820;29;20254;-70
2024/04/05 04:53:38;;;;;;;4.10;3.57;;;7.50;99.90;;;;;;2038010;29;20231;-70
2024/04/05 04:54:38;;;;;;;8.73;4.33;;;7.50;99.90;;;;;;2039405;29;20273;-70
2024/04/05 04:55:41;;;;;;;6.13;3.70;;;7.50;99.90;;;;;;2037953;29;20310;-70
2024/04/05 04:56:42;;;;;;;5.13;3.40;;;7.50;99.90;;;;;;2029092;29;20607;-70
2024/04/05 04:57:43;;;;;;;3.90;2.93;;;7.40;99.90;;;;;;2022265;29;20244;-70
2024/04/05 04:58:44;;;;;;;4.77;3.30;;;7.40;99.90;;;;;;2021744;29;20248;-70
2024/04/05 04:59:45;;;;;;;3.88;3.00;;;7.40;99.90;;;;;;2022854;29;20241;-70
2024/04/05 05:00:45;;;;;;;5.40;3.40;;;7.40;99.90;;;;;;2024167;29;20240;-70
2024/04/05 05:01:46;;;;;;;4.93;2.93;;;7.40;99.90;;;;;;2027402;29;20257;-70
2024/04/05 05:02:47;;;;;;;6.10;2.80;;;7.50;99.90;;;;;;2022571;29;20261;-70
2024/04/05 05:03:48;;;;;;;7.43;3.10;;;7.50;99.90;;;;;;2022612;29;20292;-70
2024/04/05 05:04:49;;;;;;;6.30;3.10;;;7.50;99.90;;;;;;2029467;29;20232;-70
2024/04/05 05:05:50;;;;;;;7.03;3.90;;;7.40;99.90;;;;;;2021337;29;20271;-70
2024/04/05 05:06:51;;;;;;;12.00;10.75;;;7.40;99.90;;;;;;2014714;29;20310;-70
2024/04/05 05:07:51;;;;;;;6.57;4.93;;;7.30;99.90;;;;;;2022079;29;20233;-70
2024/04/05 05:08:52;;;;;;;6.37;4.13;;;7.30;99.90;;;;;;2029488;29;20325;-70
2024/04/05 05:09:54;;;;;;;4.50;3.70;;;7.40;99.90;;;;;;2022000;29;20315;-70
2024/04/05 05:10:54;;;;;;;6.57;3.92;;;7.30;99.90;;;;;;2022405;29;20254;-71
2024/04/05 05:11:55;;;;;;;7.63;3.57;;;7.30;99.90;;;;;;2033980;29;20229;-70
2024/04/05 05:12:56;;;;;;;6.83;4.40;;;7.30;99.90;;;;;;2033891;29;20232;-70
2024/04/05 05:13:56;;;;;;;6.03;5.23;;;7.30;99.90;;;;;;2023224;29;20221;-70
2024/04/05 05:14:58;;;;;;;7.37;4.97;;;7.30;99.90;;;;;;2031558;29;20259;-70
2024/04/05 05:15:58;;;;;;;7.70;5.57;;;7.30;99.90;;;;;;2038178;29;20246;-70
2024/04/05 05:16:59;;;;;;;8.97;6.30;;;7.30;99.90;;;;;;2023202;29;20296;-70
2024/04/05 05:18:00;;;;;;;9.13;5.97;;;7.30;99.90;;;;;;2022004;29;20749;-70
2024/04/05 05:19:00;;;;;;;8.80;6.67;;;7.40;99.90;;;;;;2026750;29;21016;-70
2024/04/05 05:20:01;;;;;;;10.27;7.00;;;7.40;99.90;;;;;;2013950;29;20278;-69
2024/04/05 05:21:02;;;;;;;15.43;6.37;;;7.50;99.90;;;;;;2031097;29;20186;-69
2024/04/05 05:22:03;;;;;;;11.90;6.33;;;7.50;99.90;;;;;;2037611;29;20192;-69